Time;durP1;ratioP1;P1;durP2;ratioP2;P2;SDS_P1;SDS_P2;PMS_P1;PMS_P2;Temp;Humidity;BMP_temperature;BMP_pressure;BME280_temperature;BME280_humidity;BME280_pressure;Samples;Min_cycle;Max_cycle;Signal;HPM_P1;HPM_P2
2022/09/05 00:02:50;;;;;;;6.43;4.50;;;;;;;13.65;91.11;101672.63;10415707;28;20124;-78
2022/09/05 00:08:15;;;;;;;7.88;4.13;;;;;;;13.61;92.12;101670.69;10399010;28;20042;-78
2022/09/05 00:13:27;;;;;;;6.65;4.00;;;;;;;13.49;92.16;101674.50;10430669;28;20492;-79
2022/09/05 00:18:40;;;;;;;4.93;4.38;;;;;;;13.35;93.27;101673.81;10439737;28;20048;-79
2022/09/05 00:23:40;;;;;;;;;;;;;;;13.27;93.03;101669.00;10425614;28;20052;-79
2022/09/05 00:29:10;;;;;;;7.90;4.17;;;;;;;13.12;93.48;101672.66;10421961;28;19921;-79
2022/09/05 00:34:14;;;;;;;6.97;4.20;;;;;;;13.15;95.01;101670.19;10437168;28;20644;-79
2022/09/05 00:39:23;;;;;;;8.40;6.85;;;;;;;13.11;95.76;101670.88;10441738;28;20033;-79
2022/09/05 00:44:27;;;;;;;8.38;5.75;;;;;;;13.03;96.01;101669.56;10396348;28;20450;-79
2022/09/05 00:49:41;;;;;;;8.77;5.28;;;;;;;12.96;95.85;101665.75;10439194;28;20022;-79
2022/09/05 00:54:59;;;;;;;10.57;5.18;;;;;;;12.85;95.90;101662.56;10382983;28;20041;-79
2022/09/05 01:00:43;;;;;;;9.82;6.40;;;;;;;12.74;96.02;101663.75;10402908;28;20095;-79
2022/09/05 01:05:53;;;;;;;8.80;4.82;;;;;;;12.76;97.33;101676.16;10479618;28;20033;-79
2022/09/05 01:11:06;;;;;;;9.10;6.03;;;;;;;12.68;97.78;101666.97;10442384;28;20061;-79
2022/09/05 01:16:11;;;;;;;9.05;5.43;;;;;;;12.60;98.45;101668.28;10439516;28;20036;-79
2022/09/05 01:21:36;;;;;;;10.73;5.65;;;;;;;12.52;98.69;101661.75;10461102;28;20088;-79
2022/09/05 01:26:49;;;;;;;9.30;6.30;;;;;;;12.50;99.51;101666.00;10478813;28;20035;-79
2022/09/05 01:31:49;;;;;;;;;;;;;;;12.42;99.86;101658.63;10444196;28;20067;-80
2022/09/05 01:36:56;;;;;;;9.55;5.95;;;;;;;12.41;100.00;101663.78;10466210;28;20039;-80
2022/09/05 01:42:07;;;;;;;11.20;6.25;;;;;;;12.37;100.00;101661.81;10445967;28;20060;-80
2022/09/05 01:47:35;;;;;;;13.77;5.55;;;;;;;12.23;100.00;101658.47;10448047;28;20060;-80
2022/09/05 01:52:53;;;;;;;9.40;5.68;;;;;;;12.13;100.00;101655.34;10488022;28;20044;-78
2022/09/05 01:57:55;;;;;;;12.52;6.10;;;;;;;12.16;100.00;101659.84;10476468;28;20084;-79
2022/09/05 02:02:55;;;;;;;10.63;6.03;;;;;;;12.11;100.00;101662.25;10457455;28;20032;-79
2022/09/05 02:08:08;;;;;;;9.50;6.47;;;;;;;12.12;100.00;101665.75;10479669;28;20040;-79
2022/09/05 02:13:17;;;;;;;;;;;;;;;12.13;100.00;101667.56;10446343;28;20064;-79
2022/09/05 02:18:22;;;;;;;12.07;6.50;;;;;;;12.14;100.00;101667.66;10446352;28;19921;-79
2022/09/05 02:23:39;;;;;;;9.30;5.82;;;;;;;12.17;100.00;101665.19;10444789;28;20029;-79
2022/09/05 02:28:43;;;;;;;9.23;6.43;;;;;;;12.19;100.00;101663.56;10428206;28;20051;-79
2022/09/05 02:33:59;;;;;;;9.63;7.03;;;;;;;12.20;100.00;101674.94;10435941;28;20026;-78
2022/09/05 02:39:08;;;;;;;11.40;6.60;;;;;;;12.15;100.00;101676.41;10452540;28;20033;-79
2022/09/05 02:44:19;;;;;;;11.07;7.35;;;;;;;12.09;100.00;101674.38;10468628;28;20101;-80
2022/09/05 02:49:41;;;;;;;6.77;5.70;;;;;;;12.10;100.00;101672.63;10448674;28;20037;-80
2022/09/05 02:54:43;;;;;;;9.32;7.13;;;;;;;12.10;100.00;101665.69;10443967;28;20124;-80
2022/09/05 03:00:07;;;;;;;12.60;7.18;;;;;;;12.12;100.00;101668.38;10432479;28;20032;-80
2022/09/05 03:05:17;;;;;;;11.73;6.38;;;;;;;11.95;100.00;101676.19;10484232;28;20040;-79
2022/09/05 03:10:18;;;;;;;8.02;6.10;;;;;;;11.92;100.00;101668.16;10439342;28;20037;-80
2022/09/05 03:15:37;;;;;;;13.10;8.15;;;;;;;11.90;100.00;101670.72;10443469;28;20059;-79
2022/09/05 03:20:44;;;;;;;9.90;6.97;;;;;;;11.82;100.00;101671.09;10473376;28;20040;-80
2022/09/05 03:25:56;;;;;;;10.45;7.28;;;;;;;11.77;100.00;101667.31;10457686;28;20051;-79
2022/09/05 03:31:18;;;;;;;14.73;7.72;;;;;;;11.70;100.00;101672.22;10475886;28;20132;-79
2022/09/05 03:36:37;;;;;;;14.63;6.90;;;;;;;11.67;100.00;101671.16;10484403;28;20063;-80
2022/09/05 03:41:40;;;;;;;12.68;7.88;;;;;;;11.60;100.00;101662.03;10446243;28;20045;-79
2022/09/05 03:46:53;;;;;;;14.73;7.13;;;;;;;11.59;100.00;101668.09;10441969;28;20033;-79
2022/09/05 03:52:21;;;;;;;9.48;6.43;;;;;;;11.71;100.00;101673.13;10466144;28;20068;-78
2022/09/05 03:57:47;;;;;;;11.40;7.50;;;;;;;11.66;100.00;101664.09;10436427;28;20045;-79
2022/09/05 04:02:56;;;;;;;10.73;6.88;;;;;;;11.74;100.00;101668.06;10425868;28;20041;-78
2022/09/05 04:08:00;;;;;;;13.02;7.03;;;;;;;11.63;100.00;101664.81;10441275;28;20059;-78
2022/09/05 04:13:02;;;;;;;13.77;7.70;;;;;;;11.52;100.00;101666.84;10442455;28;20378;-78
2022/09/05 04:18:18;;;;;;;11.30;7.53;;;;;;;11.49;100.00;101678.88;10452739;28;20041;-77
2022/09/05 04:23:27;;;;;;;15.88;8.45;;;;;;;11.40;100.00;101674.91;10443359;28;20032;-78
2022/09/05 04:28:54;;;;;;;12.13;7.78;;;;;;;11.36;100.00;101672.03;10450205;28;20040;-77
2022/09/05 04:34:21;;;;;;;12.45;7.07;;;;;;;11.43;100.00;101676.81;10481316;28;20115;-78
2022/09/05 04:39:24;;;;;;;13.80;10.18;;;;;;;11.31;100.00;101674.38;10447888;28;20497;-77
2022/09/05 04:44:29;;;;;;;;;;;;;;;11.29;100.00;101673.38;10398111;28;20029;-76
2022/09/05 04:49:32;;;;;;;11.20;9.20;;;;;;;11.33;100.00;101674.47;10440825;28;19944;-78
2022/09/05 04:54:41;;;;;;;13.48;8.90;;;;;;;11.35;100.00;101681.59;10449120;28;20037;-77
2022/09/05 05:00:10;;;;;;;16.50;10.25;;;;;;;11.19;100.00;101685.06;10437751;28;20073;-77
2022/09/05 05:05:25;;;;;;;18.50;9.80;;;;;;;11.15;100.00;101686.59;10443146;28;20123;-77
2022/09/05 05:10:30;;;;;;;14.48;8.40;;;;;;;11.20;100.00;101692.13;10444007;28;20041;-77
2022/09/05 05:15:30;;;;;;;14.23;9.85;;;;;;;11.30;100.00;101694.44;10444366;28;20033;-77
2022/09/05 05:20:38;;;;;;;13.82;8.27;;;;;;;11.24;100.00;101695.78;10428018;28;20488;-77
2022/09/05 05:25:46;;;;;;;18.60;9.15;;;;;;;11.27;100.00;101698.59;10450676;28;20040;-77
2022/09/05 05:30:47;;;;;;;13.93;9.27;;;;;;;11.29;100.00;101704.84;10428755;28;20052;-77
2022/09/05 05:35:48;;;;;;;10.75;8.10;;;;;;;11.41;100.00;101705.53;10429232;28;20049;-77
2022/09/05 05:40:54;;;;;;;8.65;7.53;;;;;;;11.63;100.00;101706.78;10446902;28;20040;-77
2022/09/05 05:45:58;;;;;;;11.98;7.78;;;;;;;11.78;100.00;101700.59;10432002;28;20401;-77
2022/09/05 05:51:21;;;;;;;12.98;7.15;;;;;;;12.03;100.00;101708.16;10428815;28;20033;-77
2022/09/05 05:56:21;;;;;;;12.52;8.55;;;;;;;12.32;100.00;101709.72;10456015;28;20071;-78
2022/09/05 06:02:03;;;;;;;10.82;8.95;;;;;;;13.05;100.00;101717.84;10470751;28;20048;-78
2022/09/05 06:07:09;;;;;;;9.77;7.20;;;;;;;15.28;100.00;101714.13;10470413;28;20041;-77
2022/09/05 06:12:27;;;;;;;5.72;3.67;;;;;;;17.39;85.16;101715.81;10481590;28;20052;-77
2022/09/05 06:17:31;;;;;;;8.32;3.72;;;;;;;18.87;75.94;101713.19;10471822;28;20398;-77
2022/09/05 06:23:13;;;;;;;6.25;3.55;;;;;;;20.17;65.49;101715.47;10475041;28;20043;-80
2022/09/05 06:28:22;;;;;;;5.22;3.90;;;;;;;20.94;62.11;101714.38;10451788;28;20041;-80
2022/09/05 06:33:47;;;;;;;5.20;3.30;;;;;;;21.64;58.80;101720.00;10429690;28;20119;-81
2022/09/05 06:39:02;;;;;;;3.83;2.92;;;;;;;22.65;55.88;101714.25;10391848;28;20547;-80
2022/09/05 06:44:21;;;;;;;6.85;3.67;;;;;;;23.71;53.39;101713.38;10412969;28;20041;-83
2022/09/05 06:49:44;;;;;;;5.53;3.10;;;;;;;24.77;50.62;101709.44;10420044;28;20049;-81
2022/09/05 06:55:02;;;;;;;4.85;3.20;;;;;;;25.38;49.35;101712.13;10421835;28;20048;-80
2022/09/05 07:00:12;;;;;;;5.97;2.90;;;;;;;26.17;48.45;101708.44;10438689;28;20041;-77
2022/09/05 07:05:21;;;;;;;6.30;3.33;;;;;;;27.08;43.91;101705.25;10453268;28;20046;-76
2022/09/05 07:10:28;;;;;;;9.25;4.47;;;;;;;26.92;41.30;101715.22;10420563;28;20068;-77
2022/09/05 07:15:50;;;;;;;6.47;3.08;;;;;;;27.26;43.52;101714.06;10429924;28;20041;-79
2022/09/05 07:20:56;;;;;;;7.85;3.63;;;;;;;28.21;41.13;101718.50;10444763;28;20048;-77
2022/09/05 07:25:57;;;;;;;8.52;3.47;;;;;;;28.83;40.36;101715.88;10450281;28;20048;-78
2022/09/05 07:31:05;;;;;;;;;;;;;;;29.85;36.15;101704.25;10456118;28;20060;-78
2022/09/05 07:36:08;;;;;;;4.10;2.88;;;;;;;30.22;35.14;101705.28;10404957;28;19920;-78
2022/09/05 07:41:11;;;;;;;7.47;3.17;;;;;;;30.52;34.38;101713.63;10440022;28;20463;-78
2022/09/05 07:46:17;;;;;;;8.85;2.88;;;;;;;30.19;34.25;101703.56;10430709;28;20099;-77
2022/09/05 07:51:27;;;;;;;11.70;3.80;;;;;;;30.51;35.66;101712.75;10382378;28;20050;-76
2022/09/05 07:56:47;;;;;;;6.90;2.80;;;;;;;31.46;34.04;101715.91;10360263;28;20045;-76
2022/09/05 08:01:49;;;;;;;11.65;4.30;;;;;;;31.48;32.80;101717.66;10438847;28;21050;-77
2022/09/05 08:06:51;;;;;;;5.97;2.67;;;;;;;32.08;32.18;101719.63;10420957;28;20059;-77
2022/09/05 08:11:53;;;;;;;7.32;3.53;;;;;;;32.17;33.16;101715.75;10424754;28;20136;-78
2022/09/05 08:16:53;;;;;;;10.75;3.00;;;;;;;32.55;30.84;101712.81;10422643;28;20107;-78
2022/09/05 08:21:54;;;;;;;9.93;3.97;;;;;;;32.21;33.07;101714.75;10442569;28;20033;-78
2022/09/05 08:27:17;;;;;;;13.18;3.38;;;;;;;32.94;31.32;101717.91;10439855;28;20116;-79
2022/09/05 08:32:20;;;;;;;13.85;3.50;;;;;;;32.58;31.38;101726.28;10440033;28;20033;-78
2022/09/05 08:37:22;;;;;;;4.50;2.70;;;;;;;32.98;29.79;101713.28;10443084;28;20036;-78
2022/09/05 08:42:45;;;;;;;10.30;2.33;;;;;;;33.71;28.70;101706.25;10427311;28;20057;-78
2022/09/05 08:47:55;;;;;;;7.28;2.67;;;;;;;35.03;26.31;101706.59;10448940;28;20033;-81
2022/09/05 08:53:02;;;;;;;5.25;2.80;;;;;;;34.08;27.85;101695.84;10446852;28;20127;-78
2022/09/05 08:58:42;;;;;;;8.20;2.58;;;;;;;33.61;27.88;101705.69;10449347;28;20048;-79
2022/09/05 09:04:02;;;;;;;;;;;;;;;34.81;26.33;101706.59;10447616;28;20033;-78
2022/09/05 09:09:16;;;;;;;7.65;2.42;;;;;;;34.09;27.53;101694.91;10448570;28;19920;-79
2022/09/05 09:14:42;;;;;;;8.32;3.22;;;;;;;33.54;28.69;101687.84;10435810;28;20040;-84
2022/09/05 09:19:45;;;;;;;6.70;2.38;;;;;;;34.57;26.79;101689.44;10442077;28;20072;-80
2022/09/05 09:25:01;;;;;;;7.32;2.30;;;;;;;35.75;24.31;101687.16;10422122;28;20042;-82
2022/09/05 09:30:04;;;;;;;9.50;3.25;;;;;;;36.32;24.29;101687.25;10442709;28;20040;-82
2022/09/05 09:35:25;;;;;;;3.70;2.22;;;;;;;36.57;22.79;101686.94;10445040;28;20033;-78
2022/09/05 09:40:50;;;;;;;6.50;2.10;;;;;;;36.88;24.72;101685.38;10404510;28;20529;-77
2022/09/05 09:46:16;;;;;;;3.55;2.22;;;;;;;36.77;21.61;101684.19;10426170;28;20499;-79
2022/09/05 09:51:32;;;;;;;9.15;2.53;;;;;;;36.53;22.70;101668.97;10460537;28;20045;-77
2022/09/05 09:56:49;;;;;;;7.85;2.28;;;;;;;37.10;21.99;101662.50;10430701;28;20499;-76
2022/09/05 10:02:14;;;;;;;5.78;2.05;;;;;;;36.99;21.27;101662.16;10444737;28;20045;-77
2022/09/05 10:07:23;;;;;;;6.25;2.03;;;;;;;37.11;21.79;101658.78;10447921;28;20056;-77
2022/09/05 10:12:45;;;;;;;5.35;1.73;;;;;;;38.58;18.29;101658.06;10446014;28;20136;-77
2022/09/05 10:17:48;;;;;;;4.28;1.58;;;;;;;37.66;19.11;101655.97;10446187;28;20043;-75
2022/09/05 10:22:49;;;;;;;5.35;2.15;;;;;;;37.78;19.70;101662.56;10424277;28;20495;-75
2022/09/05 10:28:04;;;;;;;4.53;2.00;;;;;;;38.37;18.77;101651.09;10440543;28;20041;-77
2022/09/05 10:33:34;;;;;;;7.05;5.18;;;;;;;38.59;19.63;101648.88;10433733;28;20628;-79
2022/09/05 10:38:39;;;;;;;2.65;1.70;;;;;;;38.38;16.95;101655.59;10438154;28;20040;-77
2022/09/05 10:43:58;;;;;;;4.05;1.60;;;;;;;38.25;17.24;101637.16;10444951;28;20033;-78
2022/09/05 10:49:04;;;;;;;3.67;1.48;;;;;;;38.18;16.97;101652.16;10443563;28;20029;-78
2022/09/05 10:54:20;;;;;;;2.70;1.75;;;;;;;37.83;17.83;101635.88;10449527;28;20098;-78
2022/09/05 11:00:00;;;;;;;1.90;1.33;;;;;;;38.75;17.75;101637.03;10484597;28;20036;-77
2022/09/05 11:05:04;;;;;;;;;;;;;;;38.68;17.70;101616.50;10474683;28;20036;-78
2022/09/05 11:10:33;;;;;;;3.90;1.80;;;;;;;39.24;17.03;101616.78;10443020;28;19943;-78
2022/09/05 11:15:37;;;;;;;3.43;1.40;;;;;;;38.02;17.46;101609.31;10446786;28;20037;-77
2022/09/05 11:20:43;;;;;;;4.25;1.45;;;;;;;37.97;17.82;101602.38;10458696;28;20131;-77
2022/09/05 11:25:45;;;;;;;2.42;1.23;;;;;;;38.05;18.17;101606.41;10442202;28;20036;-78
2022/09/05 11:30:52;;;;;;;3.00;1.30;;;;;;;37.79;17.85;101601.53;10464408;28;20097;-77
2022/09/05 11:35:52;;;;;;;3.53;1.30;;;;;;;38.54;17.68;101601.81;10455628;28;20044;-77
2022/09/05 11:41:17;;;;;;;1.67;1.10;;;;;;;39.07;16.40;101595.91;10460950;28;20853;-78
2022/09/05 11:46:35;;;;;;;5.22;1.75;;;;;;;39.17;16.17;101597.09;10473097;28;20044;-78
2022/09/05 11:52:05;;;;;;;3.58;2.05;;;;;;;37.12;20.46;101597.81;10472830;28;20048;-79
2022/09/05 11:57:23;;;;;;;3.47;1.50;;;;;;;37.66;18.43;101599.47;10457029;28;20400;-78
2022/09/05 12:02:31;;;;;;;1.80;1.23;;;;;;;38.45;17.97;101595.06;10441834;28;20041;-78
2022/09/05 12:07:37;;;;;;;2.85;1.20;;;;;;;39.17;15.66;101582.56;10442826;28;20052;-79
2022/09/05 12:13:06;;;;;;;1.75;1.00;;;;;;;39.17;16.54;101582.56;10465829;28;20054;-79
2022/09/05 12:18:36;;;;;;;3.58;1.35;;;;;;;39.49;16.93;101577.78;10482488;28;20533;-79
2022/09/05 12:23:48;;;;;;;3.65;1.65;;;;;;;39.67;15.37;101568.50;10480170;28;20039;-79
2022/09/05 12:28:51;;;;;;;2.58;1.70;;;;;;;39.06;16.37;101575.00;10484276;28;20032;-79
2022/09/05 12:33:52;;;;;;;3.33;1.10;;;;;;;38.72;16.62;101568.84;10480689;28;20036;-79
2022/09/05 12:39:31;;;;;;;5.60;1.60;;;;;;;37.82;19.03;101572.22;10456772;28;20423;-78
2022/09/05 12:44:42;;;;;;;2.20;1.00;;;;;;;39.10;16.76;101567.50;10424570;28;20045;-82
2022/09/05 12:49:55;;;;;;;2.33;1.10;;;;;;;38.02;16.35;101570.22;10439248;28;20123;-80
2022/09/05 12:54:58;;;;;;;2.35;1.80;;;;;;;35.70;19.58;101564.91;10454595;28;20043;-79
2022/09/05 13:00:03;;;;;;;2.40;1.30;;;;;;;33.68;22.77;101567.97;10449383;28;20040;-80
2022/09/05 13:05:11;;;;;;;5.95;2.13;;;;;;;32.08;23.16;101562.59;10422448;28;20122;-79
2022/09/05 13:10:18;;;;;;;1.92;1.00;;;;;;;31.22;24.24;101556.13;10405816;28;20397;-79
2022/09/05 13:15:18;;;;;;;3.65;1.17;;;;;;;30.94;27.33;101559.53;10437431;28;20040;-79
2022/09/05 13:20:36;;;;;;;2.53;1.50;;;;;;;30.88;25.55;101551.59;10438078;28;20489;-80
2022/09/05 13:25:38;;;;;;;7.47;1.42;;;;;;;30.37;28.72;101553.75;10438989;28;20045;-81
2022/09/05 13:30:57;;;;;;;4.53;1.50;;;;;;;29.97;27.07;101550.19;10430133;28;20056;-80
2022/09/05 13:36:04;;;;;;;2.40;1.20;;;;;;;29.97;29.03;101543.88;10457025;28;20047;-81
2022/09/05 13:41:06;;;;;;;2.67;1.55;;;;;;;29.88;28.42;101545.88;10441839;28;20041;-80
2022/09/05 13:46:08;;;;;;;;;;;;;;;29.92;31.40;101545.81;10433051;28;20071;-81
2022/09/05 13:51:26;;;;;;;5.85;2.30;;;;;;;30.14;28.72;101530.06;10460213;28;20407;-80
2022/09/05 13:56:27;;;;;;;3.55;1.80;;;;;;;30.33;27.35;101523.28;10473481;28;20496;-79
2022/09/05 14:01:30;;;;;;;5.43;1.85;;;;;;;30.22;31.62;101513.66;10487332;28;20040;-80
2022/09/05 14:06:33;;;;;;;2.38;1.27;;;;;;;30.16;30.19;101510.19;10466886;28;20086;-79
2022/09/05 14:12:28;;;;;;;2.75;1.33;;;;;;;31.56;25.26;101506.44;10445878;28;20037;-79
2022/09/05 14:18:01;;;;;;;1.98;1.58;;;;;;;32.42;27.32;101501.94;10448104;28;20476;-79
2022/09/05 14:23:06;;;;;;;5.65;1.75;;;;;;;33.15;22.62;101502.13;10455806;28;20068;-80
2022/09/05 14:28:32;;;;;;;3.53;1.73;;;;;;;33.44;22.39;101504.69;10467464;28;20033;-80
2022/09/05 14:34:04;;;;;;;5.70;2.58;;;;;;;32.84;23.06;101500.50;10455625;28;20041;-79
2022/09/05 14:39:13;;;;;;;3.80;1.60;;;;;;;32.32;25.58;101493.28;10442439;28;20056;-79
2022/09/05 14:44:26;;;;;;;2.45;1.30;;;;;;;32.90;23.93;101488.56;10439744;28;20401;-79
2022/09/05 14:49:33;;;;;;;1.63;1.17;;;;;;;32.38;23.05;101485.88;10466147;28;20040;-79
2022/09/05 14:54:38;;;;;;;4.78;1.55;;;;;;;31.50;25.09;101482.28;10485472;28;20037;-79
2022/09/05 14:59:40;;;;;;;6.78;1.83;;;;;;;30.79;29.08;101479.81;10460544;28;20500;-79
2022/09/05 15:05:12;;;;;;;2.70;1.30;;;;;;;31.63;25.59;101472.00;10441459;28;20049;-78
2022/09/05 15:10:15;;;;;;;7.20;2.17;;;;;;;31.75;25.79;101454.50;10444882;28;20067;-80
2022/09/05 15:15:27;;;;;;;3.28;1.92;;;;;;;31.41;28.98;101460.94;10442185;28;20049;-80
2022/09/05 15:20:40;;;;;;;5.18;1.50;;;;;;;30.63;28.82;101460.44;10443691;28;20059;-81
2022/09/05 15:25:47;;;;;;;4.07;2.47;;;;;;;30.09;31.38;101453.72;10442777;28;20036;-80
2022/09/05 15:30:59;;;;;;;4.70;1.75;;;;;;;30.06;27.58;101457.34;10443258;28;20045;-80
2022/09/05 15:36:00;;;;;;;2.65;1.55;;;;;;;30.14;26.69;101451.78;10411058;28;20397;-81
2022/09/05 15:41:06;;;;;;;2.33;1.50;;;;;;;30.38;29.51;101455.66;10455228;28;20439;-82
2022/09/05 15:46:06;;;;;;;4.13;2.05;;;;;;;30.14;30.95;101449.09;10454996;28;20048;-83
2022/09/05 15:51:16;;;;;;;21.37;11.57;;;;;;;29.14;32.71;101453.06;10440954;28;20485;-78
2022/09/05 15:56:18;;;;;;;7.60;5.15;;;;;;;28.45;36.16;101448.09;10400770;28;20045;-79
2022/09/05 16:01:25;;;;;;;3.08;1.67;;;;;;;27.64;33.02;101454.75;10409503;28;20037;-78
2022/09/05 16:06:30;;;;;;;8.07;3.95;;;;;;;27.18;34.93;101458.03;10423370;28;20518;-80
2022/09/05 16:11:33;;;;;;;8.68;2.53;;;;;;;26.78;36.66;101441.44;10439489;28;20033;-79
2022/09/05 16:16:34;;;;;;;5.40;2.47;;;;;;;26.55;39.19;101435.41;10438908;28;20029;-79
2022/09/05 16:21:34;;;;;;;2.43;1.60;;;;;;;26.38;37.18;101429.28;10440202;28;20051;-77
2022/09/05 16:26:44;;;;;;;8.23;4.13;;;;;;;26.26;41.56;101436.56;10437938;28;20226;-77
2022/09/05 16:31:47;;;;;;;7.35;1.80;;;;;;;26.04;43.54;101423.31;10423505;28;20535;-78
2022/09/05 16:37:01;;;;;;;4.82;1.73;;;;;;;25.78;42.81;101419.03;10437806;28;20037;-78
2022/09/05 16:42:19;;;;;;;9.13;1.70;;;;;;;25.56;44.16;101418.28;10423506;28;20553;-78
2022/09/05 16:47:30;;;;;;;4.75;1.83;;;;;;;25.37;42.25;101407.63;10423591;28;20040;-79
2022/09/05 16:52:43;;;;;;;11.27;1.70;;;;;;;25.24;42.00;101406.81;10422727;28;20025;-79
2022/09/05 16:58:19;;;;;;;3.92;1.63;;;;;;;25.07;44.11;101399.75;10425880;28;20288;-78
2022/09/05 17:03:43;;;;;;;4.03;1.95;;;;;;;24.80;44.90;101399.84;10420478;28;20112;-78
2022/09/05 17:08:43;;;;;;;4.47;1.65;;;;;;;24.59;47.03;101394.50;10424214;28;20115;-78
2022/09/05 17:13:45;;;;;;;3.73;1.30;;;;;;;24.31;47.65;101393.69;10411935;28;20116;-78
2022/09/05 17:18:46;;;;;;;4.57;1.30;;;;;;;24.02;47.58;101383.91;10461198;28;20037;-79
2022/09/05 17:23:51;;;;;;;2.73;1.67;;;;;;;23.79;47.30;101382.06;10445497;28;20401;-79
2022/09/05 17:28:52;;;;;;;3.17;1.45;;;;;;;23.55;49.40;101388.25;10415010;28;20037;-79
2022/09/05 17:33:54;;;;;;;6.18;2.25;;;;;;;23.23;49.62;101386.34;10434152;28;20037;-77
2022/09/05 17:39:13;;;;;;;;;;;;;;;22.92;48.81;101391.56;10455802;28;20056;-77
2022/09/05 17:44:51;;;;;;;6.20;1.83;;;;;;;22.56;51.85;101389.59;10445910;28;19951;-79
2022/09/05 17:50:11;;;;;;;2.35;1.60;;;;;;;22.18;54.60;101386.66;10447378;28;20037;-78
2022/09/05 17:55:14;;;;;;;5.35;3.13;;;;;;;21.91;53.19;101385.53;10449986;28;20045;-79
2022/09/05 18:00:49;;;;;;;3.53;2.00;;;;;;;21.71;54.48;101389.78;10421047;28;20041;-79
2022/09/05 18:05:59;;;;;;;10.52;3.78;;;;;;;21.44;53.54;101395.69;10446684;28;20493;-79
2022/09/05 18:11:01;;;;;;;9.10;2.63;;;;;;;21.34;54.84;101393.81;10445468;28;20103;-78
2022/09/05 18:16:05;;;;;;;7.63;1.87;;;;;;;21.25;55.95;101394.59;10442177;28;20037;-77
2022/09/05 18:21:06;;;;;;;7.65;2.20;;;;;;;21.14;55.01;101389.16;10443542;28;20035;-77
2022/09/05 18:26:13;;;;;;;5.80;1.45;;;;;;;21.15;53.87;101395.34;10443293;28;20037;-77
2022/09/05 18:31:39;;;;;;;4.85;2.17;;;;;;;21.09;57.28;101394.41;10444432;28;20689;-77
2022/09/05 18:36:41;;;;;;;4.78;1.92;;;;;;;20.92;59.96;101401.25;10445118;28;20064;-77
2022/09/05 18:41:42;;;;;;;6.53;2.00;;;;;;;20.71;60.11;101399.19;10444433;28;20508;-77
2022/09/05 18:46:45;;;;;;;8.23;2.00;;;;;;;20.49;61.22;101401.53;10425173;28;20127;-82
2022/09/05 18:52:14;;;;;;;3.90;2.08;;;;;;;20.29;61.97;101403.88;10407395;28;20041;-82
2022/09/05 18:57:19;;;;;;;4.03;2.70;;;;;;;20.07;61.65;101399.09;10443062;28;20459;-81
2022/09/05 19:02:40;;;;;;;6.90;1.85;;;;;;;19.91;60.07;101402.38;10428987;28;20120;-80
2022/09/05 19:07:43;;;;;;;7.10;1.88;;;;;;;19.84;58.34;101401.31;10402710;28;20104;-80
2022/09/05 19:12:49;;;;;;;5.90;2.47;;;;;;;19.79;58.53;101403.00;10409378;28;20112;-79
2022/09/05 19:17:57;;;;;;;5.97;2.40;;;;;;;19.74;59.10;101402.00;10439775;28;20099;-80
2022/09/05 19:23:00;;;;;;;10.20;2.47;;;;;;;19.65;59.47;101389.47;10429143;28;20029;-79
2022/09/05 19:28:10;;;;;;;6.10;2.28;;;;;;;19.57;60.44;101391.09;10416622;28;20041;-79
2022/09/05 19:33:10;;;;;;;11.65;3.22;;;;;;;19.43;61.33;101381.09;10408307;28;20136;-79
2022/09/05 19:38:11;;;;;;;6.40;2.15;;;;;;;19.29;60.44;101382.59;10397259;28;20068;-79
2022/09/05 19:43:16;;;;;;;6.05;2.33;;;;;;;19.19;60.05;101390.38;10379773;28;20045;-79
2022/09/05 19:48:29;;;;;;;8.40;2.80;;;;;;;19.11;60.14;101389.31;10409094;28;20412;-79
2022/09/05 19:53:35;;;;;;;12.15;2.83;;;;;;;19.03;61.78;101397.09;10455467;28;20051;-79
2022/09/05 19:58:37;;;;;;;5.57;2.30;;;;;;;18.98;60.98;101390.81;10419441;28;20087;-77
2022/09/05 20:03:39;;;;;;;4.57;2.42;;;;;;;18.93;60.39;101395.09;10446734;28;20094;-77
2022/09/05 20:08:40;;;;;;;3.58;2.10;;;;;;;18.91;59.36;101399.47;10457359;28;20043;-77
2022/09/05 20:13:40;;;;;;;8.88;2.30;;;;;;;18.86;60.24;101390.50;10420575;28;20503;-77
2022/09/05 20:18:41;;;;;;;11.02;2.60;;;;;;;18.82;59.36;101386.91;10441018;28;20119;-77
2022/09/05 20:23:50;;;;;;;6.00;2.40;;;;;;;18.67;60.19;101376.84;10398052;28;20125;-78
2022/09/05 20:28:55;;;;;;;5.65;2.38;;;;;;;18.46;61.49;101369.31;10398752;28;20034;-81
2022/09/05 20:33:56;;;;;;;5.32;3.20;;;;;;;18.30;61.92;101373.34;10406166;28;20041;-80
2022/09/05 20:39:14;;;;;;;5.53;2.55;;;;;;;18.27;62.77;101366.22;10438379;28;20078;-79
2022/09/05 20:44:16;;;;;;;8.85;2.78;;;;;;;18.18;64.10;101364.25;10433282;28;20061;-79
2022/09/05 20:49:22;;;;;;;8.93;2.95;;;;;;;18.06;64.85;101363.94;10399130;28;20041;-78
2022/09/05 20:54:24;;;;;;;7.80;2.65;;;;;;;17.91;65.11;101352.06;10463522;28;20493;-79
2022/09/05 20:59:34;;;;;;;8.15;3.10;;;;;;;17.82;66.55;101343.91;10423646;28;20116;-79
2022/09/05 21:04:37;;;;;;;7.00;3.00;;;;;;;17.76;67.85;101355.25;10399034;28;20037;-79
2022/09/05 21:09:50;;;;;;;8.20;3.13;;;;;;;17.71;70.02;101358.63;10384564;28;20042;-79
2022/09/05 21:15:01;;;;;;;11.82;3.55;;;;;;;17.81;67.43;101363.28;10421810;28;20041;-80
2022/09/05 21:20:09;;;;;;;10.52;3.03;;;;;;;17.96;68.53;101378.69;10442520;28;20388;-79
2022/09/05 21:25:21;;;;;;;8.30;3.05;;;;;;;18.18;67.15;101377.50;10480893;28;20052;-78
2022/09/05 21:30:25;;;;;;;7.13;2.90;;;;;;;18.23;66.52;101372.31;10437816;28;20036;-79
2022/09/05 21:35:27;;;;;;;9.65;3.60;;;;;;;18.30;66.00;101376.91;10438836;28;20442;-79
2022/09/05 21:40:27;;;;;;;6.93;3.20;;;;;;;18.34;66.61;101373.47;10455256;28;20067;-79
2022/09/05 21:45:32;;;;;;;8.90;3.00;;;;;;;18.36;65.07;101388.50;10481117;28;20112;-79
2022/09/05 21:50:44;;;;;;;4.35;2.85;;;;;;;18.41;64.18;101395.69;10467466;28;20037;-79
2022/09/05 21:55:44;;;;;;;7.60;3.42;;;;;;;18.70;63.17;101384.00;10452457;28;20392;-77
2022/09/05 22:00:45;;;;;;;9.40;4.90;;;;;;;18.94;62.42;101373.00;10469817;28;20060;-77
2022/09/05 22:05:48;;;;;;;8.07;3.23;;;;;;;18.90;63.11;101380.00;10447067;28;20504;-77
2022/09/05 22:10:49;;;;;;;8.98;3.35;;;;;;;19.10;63.35;101368.06;10447629;28;20484;-77
2022/09/05 22:15:49;;;;;;;5.73;3.80;;;;;;;19.15;63.42;101369.03;10488771;28;20060;-77
2022/09/05 22:20:50;;;;;;;10.48;4.15;;;;;;;19.03;64.15;101385.63;10468100;28;20123;-78
2022/09/05 22:25:51;;;;;;;4.88;2.40;;;;;;;19.21;64.00;101391.31;10470571;28;20610;-77
2022/09/05 22:30:51;;;;;;;6.03;2.70;;;;;;;19.48;63.25;101394.44;10466035;28;20487;-79
2022/09/05 22:35:52;;;;;;;4.03;2.85;;;;;;;19.59;62.88;101411.47;10445472;28;20037;-79
2022/09/05 22:40:54;;;;;;;8.63;4.32;;;;;;;19.75;62.16;101403.81;10497361;28;20116;-79
2022/09/05 22:45:55;;;;;;;7.20;2.75;;;;;;;19.69;62.42;101401.03;10484533;28;20124;-79
2022/09/05 22:50:55;;;;;;;5.75;2.30;;;;;;;19.63;62.60;101418.63;10464166;28;20037;-80
2022/09/05 22:56:01;;;;;;;3.95;2.10;;;;;;;19.55;63.17;101446.78;10485724;28;20507;-79
2022/09/05 23:01:02;;;;;;;3.90;2.20;;;;;;;19.54;63.26;101490.13;10446191;28;20048;-78
2022/09/05 23:06:06;;;;;;;6.25;2.13;;;;;;;19.53;63.48;101498.97;10443278;28;20051;-78
2022/09/05 23:11:08;;;;;;;3.38;2.00;;;;;;;19.49;67.25;101452.00;10464040;28;20070;-76
2022/09/05 23:16:08;;;;;;;3.87;2.20;;;;;;;18.89;71.23;101444.53;10467739;28;20119;-76
2022/09/05 23:21:10;;;;;;;2.58;1.70;;;;;;;18.41;75.03;101423.97;10467197;28;20106;-76
2022/09/05 23:26:12;;;;;;;4.47;2.10;;;;;;;18.22;78.35;101418.22;10486207;28;20094;-78
2022/09/05 23:31:12;;;;;;;7.07;2.90;;;;;;;18.05;79.63;101412.47;10458401;28;20044;-77
2022/09/05 23:36:13;;;;;;;8.35;2.15;;;;;;;18.01;80.35;101422.09;10469950;28;20115;-78
2022/09/05 23:41:14;;;;;;;8.90;3.90;;;;;;;17.94;81.12;101420.13;10483257;28;20405;-77
2022/09/05 23:46:14;;;;;;;5.25;3.20;;;;;;;17.91;82.98;101399.75;10439216;28;20480;-76